Time;durP1;ratioP1;P1;durP2;ratioP2;P2;SDS_P1;SDS_P2;PMS_P1;PMS_P2;Temp;Humidity;BMP_temperature;BMP_pressure;BME280_temperature;BME280_humidity;BME280_pressure;Samples;Min_cycle;Max_cycle;Signal;HPM_P1;HPM_P2
2021/05/27 00:00:58;;;;;;;20.73;11.03;;;;;;;17.72;70.49;100649.27;126271;1099;104140;-77
2021/05/27 00:03:27;;;;;;;22.23;11.77;;;;;;;17.72;70.37;100643.97;126272;1099;104143;-78
2021/05/27 00:05:56;;;;;;;22.40;11.63;;;;;;;17.70;70.51;100640.39;126200;1099;104217;-78
2021/05/27 00:08:25;;;;;;;23.60;12.07;;;;;;;17.66;70.32;100650.09;126274;1099;105139;-78
2021/05/27 00:10:55;;;;;;;19.30;10.90;;;;;;;17.68;70.87;100650.98;126266;1099;104142;-79
2021/05/27 00:13:30;;;;;;;20.67;10.47;;;;;;;17.68;70.69;100650.11;126273;1099;104172;-78
2021/05/27 00:15:59;;;;;;;25.53;11.33;;;;;;;17.66;70.44;100643.91;126246;1098;104264;-78
2021/05/27 00:18:28;;;;;;;20.13;10.10;;;;;;;17.67;70.80;100656.28;126275;1099;104242;-78
2021/05/27 00:20:57;;;;;;;21.40;10.00;;;;;;;17.71;70.75;100656.32;126260;1099;104155;-78
2021/05/27 00:23:31;;;;;;;19.77;9.90;;;;;;;17.75;70.76;100660.80;126238;1099;104258;-77
2021/05/27 00:26:05;;;;;;;21.30;10.70;;;;;;;17.76;71.09;100665.23;126242;1099;104143;-77
2021/05/27 00:28:38;;;;;;;22.13;11.10;;;;;;;17.77;70.92;100652.84;126243;1099;104145;-77
2021/05/27 00:31:12;;;;;;;21.90;11.60;;;;;;;17.78;70.91;100654.63;126263;1099;104227;-77
2021/05/27 00:33:44;;;;;;;20.57;11.63;;;;;;;17.78;70.68;100657.29;126266;1099;104146;-77
2021/05/27 00:36:14;;;;;;;20.33;10.70;;;;;;;17.76;71.01;100651.97;126182;1099;104827;-77
2021/05/27 00:38:45;;;;;;;22.27;11.00;;;;;;;17.78;71.04;100655.52;126298;1098;104233;-78
2021/05/27 00:41:16;;;;;;;18.03;9.77;;;;;;;17.80;70.90;100668.80;126280;1099;104152;-78
2021/05/27 00:43:45;;;;;;;19.90;10.00;;;;;;;17.79;70.92;100659.05;126273;1099;104172;-78
2021/05/27 00:46:14;;;;;;;19.37;10.13;;;;;;;17.78;70.71;100660.82;126187;1099;104155;-79
2021/05/27 00:51:30;;;;;;;22.27;10.20;;;;;;;17.80;70.89;100655.53;126237;1099;104204;-78
2021/05/27 00:53:59;;;;;;;19.70;10.83;;;;;;;17.81;71.08;100661.71;126295;1099;104163;-78
2021/05/27 00:56:29;;;;;;;22.93;10.97;;;;;;;17.80;70.93;100666.14;126154;1099;104203;-77
2021/05/27 00:58:58;;;;;;;24.00;11.10;;;;;;;17.77;70.99;100666.11;126322;1099;104233;-77
2021/05/27 01:01:27;;;;;;;20.53;10.70;;;;;;;17.76;71.29;100662.58;126178;1099;105510;-77
2021/05/27 01:03:59;;;;;;;22.53;10.60;;;;;;;17.74;71.40;100663.44;126264;1099;104143;-76
2021/05/27 01:06:29;;;;;;;18.73;9.83;;;;;;;17.74;71.29;100659.00;126217;1099;104127;-76
2021/05/27 01:09:01;;;;;;;18.23;9.80;;;;;;;17.71;71.17;100653.67;126238;1099;104184;-78
2021/05/27 01:11:32;;;;;;;21.15;9.88;;;;;;;17.69;71.22;100654.55;126279;1099;104147;-77
2021/05/27 01:14:13;;;;;;;21.87;10.57;;;;;;;17.67;71.32;100645.67;126227;1099;104159;-77
2021/05/27 01:16:48;;;;;;;20.67;10.60;;;;;;;17.67;71.69;100650.97;126148;1099;104130;-77
2021/05/27 01:19:20;;;;;;;17.65;10.05;;;;;;;17.67;71.89;100653.63;126172;1099;104747;-77
2021/05/27 01:21:50;;;;;;;21.17;10.63;;;;;;;17.68;71.55;100656.30;126140;1099;102100;-77
2021/05/27 01:24:22;;;;;;;22.97;11.23;;;;;;;17.72;71.28;100663.42;126142;1099;104139;-77
2021/05/27 01:26:57;;;;;;;19.70;11.10;;;;;;;17.73;71.71;100657.25;126176;1099;104187;-78
2021/05/27 01:53:14;;;;;;;22.20;10.90;;;;;;;17.36;71.82;100659.54;125214;1102;104141;-76
2021/05/27 01:55:46;;;;;;;21.70;11.03;;;;;;;17.34;72.24;100663.03;125089;1102;104200;-76
2021/05/27 01:58:18;;;;;;;20.80;11.03;;;;;;;17.35;72.47;100670.13;125193;1102;104149;-77
2021/05/27 02:00:48;;;;;;;22.60;11.40;;;;;;;17.38;72.56;100664.86;125160;1101;104260;-77
2021/05/27 02:03:19;;;;;;;21.77;11.87;;;;;;;17.39;72.27;100658.66;125091;1102;104759;-77
2021/05/27 02:05:55;;;;;;;20.60;11.13;;;;;;;17.41;72.34;100648.98;125095;1102;104143;-76
2021/05/27 02:08:24;;;;;;;20.13;10.83;;;;;;;17.43;72.67;100656.05;125088;1102;104322;-76
2021/05/27 02:10:55;;;;;;;19.55;10.50;;;;;;;17.44;72.61;100664.92;124994;1102;104182;-76
2021/05/27 02:13:25;;;;;;;23.27;11.50;;;;;;;17.40;72.83;100660.45;124985;1102;102968;-76
2021/05/27 02:15:59;;;;;;;24.73;13.40;;;;;;;17.37;72.89;100653.38;125164;1102;104175;-77
2021/05/27 02:18:30;;;;;;;22.40;13.00;;;;;;;17.39;72.78;100654.27;125094;1102;104166;-76
2021/05/27 02:21:00;;;;;;;23.37;12.73;;;;;;;17.42;72.82;100645.43;125217;1102;104223;-77
2021/05/27 02:23:33;;;;;;;25.70;13.07;;;;;;;17.44;73.26;100641.05;125184;1105;104220;-77
2021/05/27 02:26:10;;;;;;;25.60;12.13;;;;;;;17.43;73.13;100637.48;125011;1105;104258;-77
2021/05/27 02:28:53;;;;;;;22.77;12.57;;;;;;;17.46;73.22;100626.03;125030;1105;104329;-77
2021/05/27 02:31:25;;;;;;;23.87;12.80;;;;;;;17.49;73.05;100623.41;124987;1105;104286;-78
2021/05/27 02:33:56;;;;;;;24.30;11.43;;;;;;;17.50;73.14;100627.84;125036;1103;104293;-75
2021/05/27 02:36:28;;;;;;;23.33;11.97;;;;;;;17.50;72.99;100638.45;125075;1102;101952;-75
2021/05/27 02:38:58;;;;;;;23.90;12.73;;;;;;;17.48;73.26;100639.30;125071;1102;104345;-75
2021/05/27 02:41:32;;;;;;;27.63;12.37;;;;;;;17.42;73.19;100637.47;125059;1102;104003;-76
2021/05/27 02:44:03;;;;;;;24.13;12.90;;;;;;;17.39;73.10;100645.40;124949;1102;104223;-78
2021/05/27 02:46:33;;;;;;;24.67;13.27;;;;;;;17.34;73.38;100644.47;125016;1102;104181;-78
2021/05/27 02:49:03;;;;;;;26.87;13.87;;;;;;;17.29;73.29;100631.16;124942;1106;104226;-78
2021/05/27 02:51:32;;;;;;;29.27;14.17;;;;;;;17.32;73.57;100630.31;124943;1102;104271;-77
2021/05/27 02:54:02;;;;;;;26.67;13.70;;;;;;;17.28;73.15;100624.10;124934;1102;104162;-77
2021/05/27 02:56:31;;;;;;;26.73;14.53;;;;;;;17.27;73.51;100621.44;124958;1102;104156;-77
2021/05/27 02:59:02;;;;;;;28.17;14.57;;;;;;;17.32;73.41;100623.23;124960;1102;104239;-78
2021/05/27 03:01:31;;;;;;;26.83;15.33;;;;;;;17.34;73.89;100621.52;124985;1102;104172;-77
2021/05/27 03:04:02;;;;;;;25.63;14.33;;;;;;;17.36;73.52;100624.18;124930;1102;104281;-77
2021/05/27 03:06:32;;;;;;;28.30;15.77;;;;;;;17.32;73.80;100622.36;124942;1102;104255;-78
2021/05/27 03:09:06;;;;;;;31.87;15.87;;;;;;;17.31;73.82;100625.88;124956;1102;104626;-77
2021/05/27 03:11:36;;;;;;;26.27;14.67;;;;;;;17.28;73.60;100636.45;124979;1102;104598;-78
2021/05/27 03:14:06;;;;;;;28.30;15.70;;;;;;;17.29;73.99;100647.08;124952;1103;104175;-78
2021/05/27 03:16:51;;;;;;;26.20;14.40;;;;;;;17.34;73.56;100648.03;124962;1102;104140;-77
2021/05/27 03:19:21;;;;;;;27.57;15.53;;;;;;;17.38;73.99;100638.34;124886;1102;104143;-78
2021/05/27 03:21:51;;;;;;;27.93;15.10;;;;;;;17.42;73.91;100641.03;124939;1102;104175;-78
2021/05/27 03:24:20;;;;;;;25.23;13.53;;;;;;;17.47;73.94;100642.82;124852;1102;104181;-79
2021/05/27 03:26:52;;;;;;;26.37;14.40;;;;;;;17.52;73.85;100635.82;124922;1102;104205;-78
2021/05/27 03:29:21;;;;;;;24.43;13.23;;;;;;;17.56;73.95;100626.99;124967;1102;104260;-77
2021/05/27 03:31:51;;;;;;;25.93;13.67;;;;;;;17.61;73.71;100630.60;124888;1102;104345;-78
2021/05/27 03:34:21;;;;;;;21.93;12.53;;;;;;;17.64;74.04;100624.41;124911;1102;104313;-77
2021/05/27 03:36:50;;;;;;;23.73;13.40;;;;;;;17.66;74.04;100630.64;124971;1102;104236;-78
2021/05/27 03:39:19;;;;;;;25.73;12.23;;;;;;;17.69;73.79;100626.23;124960;1102;104264;-77
2021/05/27 03:41:50;;;;;;;24.93;12.27;;;;;;;17.74;74.01;100626.28;124926;1102;104149;-79
2021/05/27 03:44:21;;;;;;;22.13;12.23;;;;;;;17.81;74.04;100617.50;124844;1102;104348;-78
2021/05/27 03:46:51;;;;;;;21.20;11.80;;;;;;;17.88;74.09;100627.30;125003;1102;104264;-77
2021/05/27 03:49:20;;;;;;;21.80;11.70;;;;;;;17.93;73.68;100628.22;124952;1102;104198;-77
2021/05/27 03:51:50;;;;;;;22.57;11.87;;;;;;;18.00;73.75;100628.27;124959;1102;104233;-77
2021/05/27 03:54:21;;;;;;;21.20;11.63;;;;;;;18.06;73.94;100613.29;124881;1102;104200;-76
2021/05/27 03:56:50;;;;;;;24.50;11.73;;;;;;;18.15;74.06;100617.75;124892;1102;104158;-79
2021/05/27 04:02:07;;;;;;;19.33;10.53;;;;;;;18.28;74.02;100616.96;124968;1102;104683;-77
2021/05/27 04:07:28;;;;;;;21.00;11.15;;;;;;;18.44;73.79;100598.45;124864;1102;104176;-77
2021/05/27 04:09:58;;;;;;;24.87;11.00;;;;;;;18.53;73.80;100602.91;124848;1102;104328;-78
2021/05/27 04:15:22;;;;;;;22.10;11.95;;;;;;;18.67;73.72;100615.39;124889;1102;104207;-77
2021/05/27 04:17:57;;;;;;;17.87;9.70;;;;;;;18.76;73.76;100611.89;124897;1102;104152;-78
2021/05/27 04:20:29;;;;;;;18.90;10.03;;;;;;;18.80;73.96;100613.66;124948;1102;104242;-78
2021/05/27 04:23:01;;;;;;;20.43;10.60;;;;;;;18.85;74.05;100614.62;125018;1105;104366;-79
2021/05/27 04:25:32;;;;;;;18.43;9.93;;;;;;;18.88;73.52;100610.19;125008;1102;104178;-78
2021/05/27 04:28:30;;;;;;;20.02;10.85;;;;;;;18.88;73.52;100615.50;125251;1103;104241;-78
2021/05/27 04:31:10;;;;;;;19.47;10.47;;;;;;;18.83;73.87;100607.48;125054;1106;104165;-77
2021/05/27 04:34:12;;;;;;;21.03;11.03;;;;;;;18.75;73.36;100611.89;124995;1102;102095;-77
2021/05/27 04:40:19;;;;;;;20.80;11.93;;;;;;;18.72;73.73;100614.53;125104;1102;104070;-77
2021/05/27 04:45:45;;;;;;;21.13;10.90;;;;;;;18.78;73.46;100622.53;125146;1102;104178;-76
2021/05/27 04:56:14;;;;;;;21.05;11.80;;;;;;;18.89;73.97;100620.83;125409;1106;102298;-79
2021/05/27 04:59:21;;;;;;;21.03;10.97;;;;;;;18.95;73.67;100626.16;125622;1105;109561;-79
2021/05/27 05:02:00;;;;;;;19.67;11.73;;;;;;;19.03;73.35;100627.06;124676;1105;104152;-77
2021/05/27 05:04:38;;;;;;;;;;;;;;;19.06;73.35;100628.86;124832;1105;104152;-78
2021/05/27 05:07:22;;;;;;;23.10;11.70;;;;;;;19.02;73.64;100624.41;124552;1105;104784;-77
2021/05/27 05:10:18;;;;;;;24.40;12.67;;;;;;;19.04;74.02;100628.86;124639;1109;104315;-77
2021/05/27 05:12:54;;;;;;;23.83;12.10;;;;;;;19.10;73.84;100627.96;124973;1105;104230;-78
2021/05/27 05:15:29;;;;;;;20.23;11.70;;;;;;;19.16;73.75;100621.78;124895;1105;104641;-76
2021/05/27 05:18:01;;;;;;;21.40;11.63;;;;;;;19.22;73.71;100621.80;124775;1105;102338;-77
2021/05/27 05:24:02;;;;;;;20.87;11.63;;;;;;;19.33;73.27;100625.36;125417;1102;101909;-78
2021/05/27 05:26:35;;;;;;;22.13;12.80;;;;;;;19.39;73.51;100637.80;125149;1102;104163;-77
2021/05/27 05:29:06;;;;;;;20.82;11.68;;;;;;;19.40;73.83;100632.48;125481;1102;104201;-77
2021/05/27 05:31:37;;;;;;;20.03;10.10;;;;;;;19.36;73.54;100632.47;125178;1102;104146;-77
2021/05/27 05:34:11;;;;;;;16.77;7.87;;;;;;;19.29;73.27;100631.58;125032;1102;104165;-76
2021/05/27 05:36:44;;;;;;;15.33;7.73;;;;;;;19.22;73.30;100643.95;125488;1102;104153;-75
2021/05/27 05:39:13;;;;;;;14.10;7.40;;;;;;;19.18;73.57;100641.28;125003;1099;105357;-76
2021/05/27 05:41:46;;;;;;;16.70;7.87;;;;;;;19.16;73.76;100640.41;125053;1102;104168;-74
2021/05/27 05:44:18;;;;;;;14.53;7.93;;;;;;;19.17;73.55;100640.41;124987;1102;102568;-76
2021/05/27 05:46:47;;;;;;;13.40;7.25;;;;;;;19.16;73.03;100638.62;124960;1102;104166;-77
2021/05/27 05:49:17;;;;;;;14.47;7.33;;;;;;;19.16;73.37;100635.08;124972;1102;104206;-77
2021/05/27 05:51:47;;;;;;;14.33;7.70;;;;;;;19.14;73.08;100636.86;124991;1102;104188;-76
2021/05/27 05:54:18;;;;;;;13.07;7.17;;;;;;;19.12;73.63;100636.86;124834;1102;104382;-76
2021/05/27 05:56:48;;;;;;;15.40;7.13;;;;;;;19.13;73.63;100635.95;125056;1102;104187;-77
2021/05/27 05:59:18;;;;;;;13.50;7.50;;;;;;;19.22;73.96;100635.09;124933;1102;104405;-76
2021/05/27 06:01:49;;;;;;;11.73;7.23;;;;;;;19.28;73.09;100640.44;124999;1102;104345;-76
2021/05/27 06:04:22;;;;;;;14.38;7.40;;;;;;;19.34;73.71;100637.78;125085;1102;104293;-76
2021/05/27 06:07:15;;;;;;;14.27;7.60;;;;;;;19.45;73.36;100632.48;125021;1102;104296;-76
2021/05/27 06:09:49;;;;;;;15.85;7.50;;;;;;;19.61;73.44;100632.50;124948;1102;104236;-76
2021/05/27 06:12:18;;;;;;;;;;;;;;;19.79;73.94;100627.22;124716;1102;104200;-77
2021/05/27 06:14:52;;;;;;;14.30;7.43;;;;;;;19.91;73.70;100623.65;124774;1102;104399;-79
2021/05/27 06:17:22;;;;;;;15.30;7.63;;;;;;;20.06;73.30;100614.77;125021;1102;104338;-77
2021/05/27 06:19:53;;;;;;;13.20;6.70;;;;;;;20.11;73.47;100619.17;125034;1103;104147;-78
2021/05/27 06:22:29;;;;;;;15.60;6.70;;;;;;;20.21;72.47;100616.50;124986;1101;104281;-76
2021/05/27 06:25:00;;;;;;;13.80;7.10;;;;;;;20.28;72.51;100628.93;125017;1102;104283;-77
2021/05/27 06:27:30;;;;;;;12.67;6.53;;;;;;;20.39;73.29;100626.23;125055;1099;104169;-77
2021/05/27 06:30:00;;;;;;;13.63;6.80;;;;;;;20.46;72.66;100634.22;124948;1099;104242;-78
2021/05/27 06:32:31;;;;;;;12.07;6.70;;;;;;;20.53;73.10;100627.08;125099;1102;104194;-76
2021/05/27 06:35:07;;;;;;;11.63;5.83;;;;;;;20.65;72.08;100628.86;125070;1099;104270;-76
2021/05/27 06:37:43;;;;;;;12.60;5.87;;;;;;;20.78;72.29;100622.56;124927;1102;104239;-75
2021/05/27 06:40:21;;;;;;;11.53;5.43;;;;;;;20.94;71.36;100630.50;124990;1099;104265;-76
2021/05/27 06:42:50;;;;;;;10.80;5.33;;;;;;;21.01;71.52;100618.91;125074;1099;104182;-77
2021/05/27 06:45:21;;;;;;;9.27;5.30;;;;;;;21.08;71.47;100617.97;124992;1099;104296;-77
2021/05/27 06:47:51;;;;;;;8.90;5.37;;;;;;;21.16;71.55;100623.26;125043;1099;104245;-76
2021/05/27 06:53:06;;;;;;;9.50;5.03;;;;;;;21.50;71.48;100615.97;125017;1099;104204;-77
2021/05/27 06:55:43;;;;;;;9.78;4.90;;;;;;;21.62;70.28;100619.44;125046;1102;104204;-77
2021/05/27 06:58:13;;;;;;;9.63;4.93;;;;;;;21.76;70.52;100625.55;124935;1102;104268;-77
2021/05/27 07:00:53;;;;;;;8.77;4.70;;;;;;;21.90;70.06;100623.63;125108;1099;104175;-76
2021/05/27 07:03:23;;;;;;;8.53;4.73;;;;;;;22.08;69.54;100622.59;124879;1102;104371;-76
2021/05/27 07:05:51;;;;;;;8.90;4.97;;;;;;;22.24;69.25;100620.64;125217;1099;104188;-77
2021/05/27 07:08:20;;;;;;;7.07;4.77;;;;;;;22.32;69.61;100619.71;124885;1099;104160;-77
2021/05/27 07:10:51;;;;;;;9.33;4.73;;;;;;;22.34;68.78;100618.77;125045;1102;104175;-76
2021/05/27 07:13:20;;;;;;;8.60;5.03;;;;;;;22.36;68.53;100613.41;124931;1099;104219;-76
2021/05/27 07:15:48;;;;;;;6.73;4.73;;;;;;;22.42;68.42;100608.00;124957;1099;104146;-77
2021/05/27 07:18:17;;;;;;;11.23;5.10;;;;;;;22.56;67.90;100607.84;124952;1102;104220;-75
2021/05/27 07:20:45;;;;;;;11.43;5.00;;;;;;;22.71;68.27;100613.00;124925;1102;104255;-75
2021/05/27 07:23:14;;;;;;;6.20;4.50;;;;;;;22.84;68.16;100611.04;124961;1099;104185;-75
2021/05/27 07:25:44;;;;;;;10.50;5.03;;;;;;;23.02;68.01;100623.30;124979;1099;104243;-76
2021/05/27 07:28:14;;;;;;;10.90;4.90;;;;;;;23.10;67.58;100617.88;125005;1099;104137;-76
2021/05/27 07:30:43;;;;;;;9.35;5.00;;;;;;;23.21;67.97;100618.59;125016;1099;104239;-76
2021/05/27 07:33:12;;;;;;;11.93;5.70;;;;;;;23.33;67.41;100617.55;125048;1099;104153;-77
2021/05/27 07:35:41;;;;;;;11.70;5.30;;;;;;;23.33;67.03;100626.45;124972;1099;104178;-75
2021/05/27 07:38:09;;;;;;;8.77;5.10;;;;;;;23.37;66.61;100629.95;125029;1102;104357;-75
2021/05/27 07:40:39;;;;;;;12.23;5.40;;;;;;;23.38;66.83;100630.86;124973;1102;104319;-76
2021/05/27 07:43:08;;;;;;;8.43;5.27;;;;;;;23.44;66.54;100638.80;125049;1099;104165;-76
2021/05/27 07:45:37;;;;;;;10.90;5.30;;;;;;;23.47;66.17;100634.28;124995;1099;104178;-76
2021/05/27 07:48:06;;;;;;;8.53;5.17;;;;;;;23.51;65.80;100630.66;125050;1102;104273;-76
2021/05/27 07:50:34;;;;;;;9.13;5.53;;;;;;;23.55;65.95;100631.48;125039;1102;104345;-75
2021/05/27 07:53:07;;;;;;;11.33;5.60;;;;;;;23.61;65.56;100635.87;124962;1102;104313;-77
2021/05/27 07:55:35;;;;;;;12.50;5.97;;;;;;;23.55;65.66;100636.84;124991;1099;104230;-75
2021/05/27 07:58:04;;;;;;;8.13;5.00;;;;;;;23.69;65.32;100641.97;125066;1099;104271;-78
2021/05/27 08:00:32;;;;;;;8.40;4.80;;;;;;;23.82;65.23;100640.84;125088;1102;104319;-77
2021/05/27 08:03:01;;;;;;;8.67;5.30;;;;;;;23.91;64.89;100644.33;125048;1099;104328;-77
2021/05/27 08:05:35;;;;;;;7.70;5.03;;;;;;;23.95;64.04;100651.39;124973;1099;104185;-77
2021/05/27 08:08:05;;;;;;;7.60;4.87;;;;;;;23.89;63.63;100652.40;125092;1099;104226;-77
2021/05/27 08:10:36;;;;;;;7.67;5.10;;;;;;;23.81;63.82;100648.91;125039;1099;104239;-76
2021/05/27 08:13:08;;;;;;;8.67;4.70;;;;;;;23.86;63.13;100647.09;124972;1102;104171;-79
2021/05/27 08:15:41;;;;;;;10.77;5.03;;;;;;;23.98;62.32;100649.56;125067;1102;104226;-77
2021/05/27 08:18:10;;;;;;;9.67;5.00;;;;;;;24.08;62.58;100660.13;124958;1102;104322;-77
2021/05/27 08:20:40;;;;;;;6.40;4.87;;;;;;;24.03;61.90;100654.84;125089;1099;104283;-78
2021/05/27 08:23:11;;;;;;;8.20;4.63;;;;;;;23.99;62.29;100664.70;125079;1099;104287;-78
2021/05/27 08:25:43;;;;;;;8.97;4.20;;;;;;;23.99;61.75;100659.35;125129;1099;104317;-78
2021/05/27 08:28:16;;;;;;;8.37;4.53;;;;;;;24.08;61.79;100665.48;125027;1099;104364;-78
2021/05/27 08:30:46;;;;;;;8.43;4.60;;;;;;;24.17;61.20;100668.88;125023;1099;104290;-74
2021/05/27 08:33:17;;;;;;;13.50;4.33;;;;;;;24.29;61.25;100667.75;125055;1099;104174;-76
2021/05/27 08:35:47;;;;;;;7.47;4.30;;;;;;;24.48;60.86;100659.36;125031;1102;104181;-75
2021/05/27 08:38:21;;;;;;;10.08;4.25;;;;;;;24.66;61.29;100659.04;125031;1099;104173;-76
2021/05/27 08:40:52;;;;;;;6.37;3.90;;;;;;;24.78;60.47;100648.96;125097;1099;104240;-77
2021/05/27 08:43:24;;;;;;;5.62;3.40;;;;;;;24.84;60.23;100648.84;124999;1099;108205;-77
2021/05/27 08:46:01;;;;;;;4.07;3.33;;;;;;;24.86;59.86;100645.22;125100;1099;104159;-76
2021/05/27 08:48:32;;;;;;;4.80;3.25;;;;;;;25.07;59.49;100638.52;125178;1100;104165;-77
2021/05/27 08:51:02;;;;;;;5.47;3.40;;;;;;;25.18;59.14;100640.05;125880;1099;104174;-76
2021/05/27 08:53:34;;;;;;;4.30;3.20;;;;;;;25.17;58.96;100641.00;125900;1098;104211;-78
2021/05/27 08:56:06;;;;;;;3.40;2.93;;;;;;;25.17;58.30;100644.55;125802;1098;104195;-77
2021/05/27 08:58:35;;;;;;;4.87;3.20;;;;;;;25.17;57.35;100641.00;125827;1099;105631;-78
2021/05/27 09:01:09;;;;;;;5.57;3.13;;;;;;;25.23;57.97;100640.86;125786;1099;104242;-77
2021/05/27 09:03:46;;;;;;;6.90;3.60;;;;;;;25.27;56.97;100634.48;125703;1099;104210;-79
2021/05/27 09:06:18;;;;;;;7.17;3.53;;;;;;;25.19;57.37;100631.97;126660;1099;104249;-77
2021/05/27 09:08:47;;;;;;;7.90;3.50;;;;;;;25.14;56.91;100627.64;125060;1099;104333;-75
2021/05/27 09:11:24;;;;;;;5.80;3.63;;;;;;;25.14;57.08;100624.95;125861;1099;104242;-76
2021/05/27 09:13:56;;;;;;;5.90;3.30;;;;;;;25.13;57.20;100624.05;125715;1099;105643;-75
2021/05/27 09:16:26;;;;;;;9.43;3.83;;;;;;;25.16;56.72;100620.42;125710;1099;104152;-76
2021/05/27 09:19:21;;;;;;;11.00;4.10;;;;;;;25.21;56.38;100626.56;125638;1099;104228;-76
2021/05/27 09:21:57;;;;;;;4.27;3.20;;;;;;;25.21;56.17;100632.84;125802;1099;104146;-75
2021/05/27 09:24:49;;;;;;;5.07;3.30;;;;;;;25.24;56.09;100618.44;125806;1099;104252;-76
2021/05/27 09:27:45;;;;;;;11.13;3.57;;;;;;;25.20;56.23;100614.08;125181;1099;104293;-77
2021/05/27 09:34:07;;;;;;;6.80;3.00;;;;;;;25.12;55.35;100611.56;125300;1099;105493;-76
2021/05/27 09:36:38;;;;;;;5.00;3.08;;;;;;;24.99;55.58;100616.30;125805;1099;104216;-77
2021/05/27 09:39:09;;;;;;;6.70;3.30;;;;;;;24.83;54.53;100610.39;125718;1099;104197;-75
2021/05/27 09:41:43;;;;;;;6.17;3.10;;;;;;;24.68;55.16;100621.45;125066;1102;104296;-76
2021/05/27 09:44:27;;;;;;;3.97;3.20;;;;;;;24.53;54.85;100609.22;125022;1102;104338;-76
2021/05/27 09:46:57;;;;;;;5.22;3.15;;;;;;;24.42;54.89;100612.11;124973;1102;104146;-76
2021/05/27 09:49:27;;;;;;;5.53;3.30;;;;;;;24.29;54.72;100615.94;124978;1100;104309;-77
2021/05/27 09:51:57;;;;;;;6.20;3.17;;;;;;;24.12;54.34;100619.84;125083;1102;104386;-77
2021/05/27 09:54:47;;;;;;;4.17;2.97;;;;;;;23.91;54.89;100618.41;124962;1102;104187;-78
2021/05/27 09:57:23;;;;;;;5.87;2.90;;;;;;;23.74;54.76;100620.47;124981;1102;104443;-78
2021/05/27 09:59:57;;;;;;;11.73;4.20;;;;;;;23.62;53.88;100614.41;124966;1102;104172;-77
2021/05/27 10:02:28;;;;;;;6.77;3.70;;;;;;;23.54;54.35;100612.76;125001;1102;104309;-77
2021/05/27 10:05:13;;;;;;;6.33;2.67;;;;;;;23.47;53.66;100615.53;124955;1101;104456;-77
2021/05/27 10:07:47;;;;;;;3.17;2.70;;;;;;;23.49;53.80;100605.67;125172;1100;105006;-78
2021/05/27 10:10:21;;;;;;;3.87;2.80;;;;;;;23.51;53.77;100605.64;125116;1102;104249;-78
2021/05/27 10:12:53;;;;;;;4.17;2.77;;;;;;;23.59;53.74;100611.78;124866;1102;104303;-78
2021/05/27 10:18:47;;;;;;;6.27;3.30;;;;;;;23.65;53.47;100600.97;125049;1102;102398;-77
2021/05/27 10:21:17;;;;;;;6.53;3.40;;;;;;;23.69;53.87;100613.38;124910;1102;105596;-77
2021/05/27 10:23:46;;;;;;;5.00;3.57;;;;;;;23.63;53.41;100602.77;124917;1102;104254;-75
2021/05/27 10:26:16;;;;;;;7.47;3.50;;;;;;;23.57;53.69;100607.35;124969;1102;104232;-75
2021/05/27 10:28:49;;;;;;;6.23;3.63;;;;;;;23.58;53.56;100607.33;125445;1099;104133;-76
2021/05/27 10:31:23;;;;;;;6.67;3.53;;;;;;;23.62;54.06;100610.83;125922;1099;104207;-76
2021/05/27 10:33:54;;;;;;;5.33;3.27;;;;;;;23.61;53.39;100609.95;125761;1099;104284;-76
2021/05/27 10:36:45;;;;;;;7.83;3.53;;;;;;;23.65;53.58;100603.65;125770;1099;104209;-76
2021/05/27 10:39:31;;;;;;;3.87;3.10;;;;;;;23.79;53.63;100599.83;126869;1099;101937;-77
2021/05/27 10:42:03;;;;;;;4.83;3.70;;;;;;;23.86;53.71;100586.34;125817;1099;104367;-77
2021/05/27 10:44:34;;;;;;;6.13;3.80;;;;;;;23.92;53.53;100590.72;125157;1099;104332;-76
2021/05/27 10:47:12;;;;;;;5.03;3.50;;;;;;;23.98;53.58;100590.61;125018;1102;105284;-76
2021/05/27 10:49:59;;;;;;;11.43;3.93;;;;;;;24.02;53.98;100580.70;125023;1099;104422;-78
2021/05/27 10:52:41;;;;;;;8.40;3.77;;;;;;;24.09;53.63;100579.69;125125;1099;104217;-77
2021/05/27 10:55:41;;;;;;;10.28;3.80;;;;;;;24.13;53.59;100567.09;124967;1102;104226;-77
2021/05/27 10:58:13;;;;;;;7.53;3.60;;;;;;;24.12;53.30;100562.64;124688;1102;104382;-77
2021/05/27 11:01:00;;;;;;;6.53;4.10;;;;;;;24.17;53.04;100567.01;125139;1102;104200;-75
2021/05/27 11:03:47;;;;;;;9.10;4.23;;;;;;;24.22;53.17;100554.39;125059;1102;104621;-76
2021/05/27 11:06:26;;;;;;;8.93;4.40;;;;;;;24.27;52.96;100554.30;125004;1102;119844;-77
2021/05/27 11:09:23;;;;;;;8.40;3.67;;;;;;;24.32;53.24;100557.76;125068;1102;104415;-77
2021/05/27 11:12:09;;;;;;;9.67;3.57;;;;;;;24.34;52.81;100552.36;124873;1105;104181;-78
2021/05/27 11:14:40;;;;;;;8.27;3.67;;;;;;;24.35;53.33;100555.02;124772;1102;104240;-76
2021/05/27 11:17:24;;;;;;;7.87;3.27;;;;;;;24.36;52.81;100562.16;124737;1102;104322;-77
2021/05/27 11:19:56;;;;;;;7.07;3.60;;;;;;;24.46;52.53;100567.33;125029;1102;104255;-77
2021/05/27 11:22:47;;;;;;;7.57;3.50;;;;;;;24.60;52.57;100570.63;124899;1102;104543;-79
2021/05/27 11:25:30;;;;;;;5.37;3.13;;;;;;;24.68;51.99;100565.11;124992;1102;104170;-78
2021/05/27 11:28:24;;;;;;;4.30;3.20;;;;;;;24.76;51.93;100555.08;125170;1102;104168;-77
2021/05/27 11:30:57;;;;;;;6.63;3.50;;;;;;;24.86;51.92;100553.09;125182;1102;104185;-76
2021/05/27 11:33:32;;;;;;;5.78;3.25;;;;;;;24.86;51.48;100547.73;125123;1102;104637;-77
2021/05/27 11:36:06;;;;;;;6.07;3.37;;;;;;;24.86;51.85;100550.41;124996;1102;104274;-76
2021/05/27 11:38:37;;;;;;;6.63;3.30;;;;;;;24.84;51.53;100536.13;125022;1102;104144;-76
2021/05/27 11:41:14;;;;;;;8.17;3.30;;;;;;;24.85;51.82;100543.27;125034;1102;104284;-76
2021/05/27 11:43:46;;;;;;;3.60;2.80;;;;;;;24.90;51.02;100535.98;125576;1099;104190;-78
2021/05/27 11:46:19;;;;;;;4.83;2.95;;;;;;;24.89;50.83;100534.24;125966;1099;104140;-78
2021/05/27 11:48:59;;;;;;;3.20;2.90;;;;;;;24.86;50.45;100531.63;125938;1099;104168;-79
2021/05/27 11:51:33;;;;;;;4.43;2.83;;;;;;;24.72;50.20;100537.30;125983;1099;104265;-78
2021/05/27 11:54:06;;;;;;;3.13;2.83;;;;;;;24.65;50.57;100524.93;125208;1102;104190;-78
2021/05/27 11:56:38;;;;;;;;;;;;;;;24.60;50.31;100530.40;125246;1099;102936;-77
2021/05/27 11:59:10;;;;;;;7.25;3.10;;;;;;;24.55;50.55;100526.91;125927;1098;104175;-78
2021/05/27 12:01:43;;;;;;;3.50;2.87;;;;;;;24.52;50.17;100513.56;126043;1098;104224;-78
2021/05/27 12:04:19;;;;;;;3.20;2.53;;;;;;;24.52;50.08;100513.56;126177;1099;104146;-77
2021/05/27 12:06:56;;;;;;;4.87;2.73;;;;;;;24.48;50.22;100506.48;125877;1097;104207;-77
2021/05/27 12:09:40;;;;;;;21.43;3.73;;;;;;;24.52;49.78;100502.83;125302;1099;104363;-79
2021/05/27 12:12:25;;;;;;;6.30;2.80;;;;;;;24.61;50.11;100499.98;125920;1099;104187;-77
2021/05/27 12:14:57;;;;;;;4.60;2.70;;;;;;;24.76;49.66;100504.09;125987;1099;104299;-76
2021/05/27 12:17:30;;;;;;;6.50;2.92;;;;;;;24.85;49.52;100503.02;126062;1098;104165;-78
2021/05/27 12:20:05;;;;;;;3.43;2.90;;;;;;;24.99;49.54;100500.01;126077;1098;104386;-77
2021/05/27 12:22:49;;;;;;;3.30;2.67;;;;;;;25.05;49.27;100502.55;126028;1099;104268;-77
2021/05/27 12:25:20;;;;;;;6.53;2.90;;;;;;;25.03;49.19;100507.08;125878;1099;104233;-75
2021/05/27 12:27:52;;;;;;;7.73;3.23;;;;;;;25.03;49.27;100502.58;125020;1099;104233;-78
2021/05/27 12:30:25;;;;;;;5.70;3.10;;;;;;;25.03;48.86;100507.08;125141;1099;104188;-77
2021/05/27 12:36:10;;;;;;;4.63;3.03;;;;;;;25.04;48.45;100512.41;125088;1100;104197;-76